Time;durP1;ratioP1;P1;durP2;ratioP2;P2;SDS_P1;SDS_P2;PMS_P1;PMS_P2;Temp;Humidity;BMP_temperature;BMP_pressure;BME280_temperature;BME280_humidity;BME280_pressure;Samples;Min_cycle;Max_cycle;Signal;HPM_P1;HPM_P2
2023/06/19 00:00:15;;;;;;;6.90;6.20;;;21.70;94.40;;;;;;5103583;27;20058;-71
2023/06/19 00:02:42;;;;;;;6.85;6.15;;;21.70;94.40;;;;;;5088614;27;20054;-72
2023/06/19 00:05:09;;;;;;;7.60;6.80;;;21.70;94.30;;;;;;5104980;27;20039;-71
2023/06/19 00:07:36;;;;;;;7.88;6.45;;;21.70;94.30;;;;;;5103362;27;20035;-71
2023/06/19 00:10:03;;;;;;;7.57;6.40;;;21.70;94.30;;;;;;5100808;27;20142;-71
2023/06/19 00:12:28;;;;;;;6.85;6.10;;;21.70;94.20;;;;;;5104814;27;20130;-73
2023/06/19 00:14:54;;;;;;;8.18;7.20;;;21.60;94.10;;;;;;5102050;27;20043;-72
2023/06/19 00:17:20;;;;;;;7.10;6.40;;;21.60;94.10;;;;;;5090548;27;20050;-71
2023/06/19 00:19:46;;;;;;;7.13;6.35;;;21.60;93.90;;;;;;5108860;27;20047;-73
2023/06/19 00:22:12;;;;;;;8.65;6.93;;;21.60;93.90;;;;;;5091406;27;20129;-71
2023/06/19 00:24:38;;;;;;;8.98;6.35;;;21.60;93.80;;;;;;5128040;27;20126;-73
2023/06/19 00:27:04;;;;;;;9.10;6.38;;;21.60;93.70;;;;;;5092615;27;20031;-71
2023/06/19 00:29:30;;;;;;;8.07;6.30;;;21.60;93.70;;;;;;5108187;27;20102;-71
2023/06/19 00:31:55;;;;;;;9.25;6.20;;;21.60;93.70;;;;;;5096402;27;20578;-71
2023/06/19 00:34:24;;;;;;;7.30;6.30;;;21.60;93.70;;;;;;5130788;27;20199;-72
2023/06/19 00:36:56;;;;;;;6.80;6.10;;;21.60;93.60;;;;;;5097244;27;20099;-71
2023/06/19 00:39:26;;;;;;;8.63;6.45;;;21.60;93.70;;;;;;5095675;27;20057;-71
2023/06/19 00:41:52;;;;;;;8.63;6.75;;;21.60;93.80;;;;;;5113069;27;20668;-74
2023/06/19 00:44:18;;;;;;;7.47;6.57;;;21.60;93.90;;;;;;5095958;27;20107;-74
2023/06/19 00:46:45;;;;;;;9.60;6.57;;;21.60;94.00;;;;;;5110343;27;20400;-71
2023/06/19 00:49:11;;;;;;;7.72;6.43;;;21.60;94.10;;;;;;5105066;27;20443;-70
2023/06/19 00:51:38;;;;;;;8.65;6.90;;;21.60;94.10;;;;;;5106708;27;20047;-70
2023/06/19 00:54:04;;;;;;;7.45;6.68;;;21.70;94.30;;;;;;5106868;27;20615;-73
2023/06/19 00:56:30;;;;;;;8.60;7.38;;;21.70;94.40;;;;;;5106427;27;20458;-73
2023/06/19 00:58:56;;;;;;;8.13;6.85;;;21.60;94.50;;;;;;5090938;27;20071;-70
2023/06/19 01:01:23;;;;;;;8.88;7.47;;;21.60;94.60;;;;;;5104322;27;20075;-70
2023/06/19 01:03:49;;;;;;;8.23;6.60;;;21.60;94.80;;;;;;5128185;27;20054;-73
2023/06/19 01:06:23;;;;;;;8.43;7.03;;;21.60;95.00;;;;;;5092228;27;20035;-70
2023/06/19 01:09:04;;;;;;;9.52;7.03;;;21.60;95.20;;;;;;5109091;27;20039;-70
2023/06/19 01:11:47;;;;;;;7.95;6.97;;;21.60;95.40;;;;;;5087580;27;20047;-73
2023/06/19 01:14:21;;;;;;;7.85;6.50;;;21.60;95.50;;;;;;5091412;27;20095;-70
2023/06/19 01:16:47;;;;;;;7.53;6.57;;;21.60;95.60;;;;;;5110091;27;20158;-71
2023/06/19 01:19:18;;;;;;;9.10;6.68;;;21.50;95.50;;;;;;5110556;27;20047;-70
2023/06/19 01:21:46;;;;;;;7.93;6.80;;;21.50;95.60;;;;;;5099060;27;20047;-71
2023/06/19 01:24:11;;;;;;;8.65;6.82;;;21.50;95.70;;;;;;5106712;27;20043;-72
2023/06/19 01:26:37;;;;;;;9.63;6.80;;;21.50;95.90;;;;;;5106861;27;20600;-70
2023/06/19 01:29:04;;;;;;;7.18;6.47;;;21.50;96.00;;;;;;5091099;27;20768;-70
2023/06/19 01:31:45;;;;;;;8.10;6.70;;;21.50;96.00;;;;;;5104290;27;20054;-71
2023/06/19 01:34:14;;;;;;;7.97;6.40;;;21.50;96.20;;;;;;5107706;27;21736;-70
2023/06/19 01:36:41;;;;;;;7.72;7.00;;;21.40;96.10;;;;;;5086044;27;20058;-70
2023/06/19 01:39:09;;;;;;;7.93;6.82;;;21.40;96.10;;;;;;5106931;27;20486;-72
2023/06/19 01:41:36;;;;;;;8.95;6.30;;;21.40;96.20;;;;;;5088982;27;20138;-73
2023/06/19 01:44:03;;;;;;;8.82;6.70;;;21.40;96.30;;;;;;5070261;27;20042;-70
2023/06/19 01:46:29;;;;;;;8.68;6.50;;;21.40;96.30;;;;;;5103406;27;20081;-72
2023/06/19 01:48:55;;;;;;;8.30;6.70;;;21.40;96.40;;;;;;5107530;27;20099;-71
2023/06/19 01:51:21;;;;;;;8.30;7.30;;;21.40;96.40;;;;;;5092659;27;20891;-69
2023/06/19 01:53:47;;;;;;;7.90;6.50;;;21.40;96.40;;;;;;5087777;27;20555;-71
2023/06/19 01:56:13;;;;;;;8.43;6.90;;;21.40;96.30;;;;;;5105615;27;20043;-70
2023/06/19 01:58:38;;;;;;;8.93;7.30;;;21.40;96.30;;;;;;5084349;27;20061;-70
2023/06/19 02:01:04;;;;;;;8.02;7.10;;;21.40;96.30;;;;;;5101201;27;20050;-73
2023/06/19 02:03:30;;;;;;;8.15;6.80;;;21.40;96.30;;;;;;5109467;27;20158;-72
2023/06/19 02:05:55;;;;;;;9.32;7.15;;;21.40;96.20;;;;;;5090473;27;20046;-71
2023/06/19 02:08:21;;;;;;;7.60;6.72;;;21.40;96.20;;;;;;5087491;27;20401;-69
2023/06/19 02:10:47;;;;;;;8.98;7.28;;;21.40;96.20;;;;;;5103954;27;20055;-72
2023/06/19 02:13:13;;;;;;;7.75;6.78;;;21.60;96.20;;;;;;5107027;27;20183;-70
2023/06/19 02:15:38;;;;;;;8.00;6.97;;;21.40;96.20;;;;;;5104881;27;20579;-70
2023/06/19 02:18:05;;;;;;;7.88;6.72;;;21.40;96.10;;;;;;5121655;27;20070;-71
2023/06/19 02:20:31;;;;;;;7.07;6.38;;;21.40;96.00;;;;;;5099994;27;20043;-71
2023/06/19 02:22:57;;;;;;;8.77;6.97;;;21.40;96.00;;;;;;5088786;27;20051;-75
2023/06/19 02:25:22;;;;;;;7.97;6.40;;;21.60;96.00;;;;;;5105753;27;20055;-71
2023/06/19 02:27:48;;;;;;;8.25;6.85;;;21.30;95.90;;;;;;5105347;27;20062;-70
2023/06/19 02:30:14;;;;;;;8.02;7.07;;;21.30;96.00;;;;;;5104043;27;20502;-69
2023/06/19 02:32:40;;;;;;;7.75;7.00;;;21.30;96.10;;;;;;5087711;27;20092;-72
2023/06/19 02:35:09;;;;;;;9.10;7.40;;;21.20;96.30;;;;;;5103586;27;20644;-73
2023/06/19 02:37:38;;;;;;;10.18;7.30;;;21.10;96.40;;;;;;5104500;27;20062;-71
2023/06/19 02:40:09;;;;;;;8.65;7.72;;;21.20;96.50;;;;;;5104863;27;20074;-71
2023/06/19 02:42:34;;;;;;;8.98;7.28;;;21.10;96.60;;;;;;5103445;27;20247;-71
2023/06/19 02:45:03;;;;;;;8.45;7.55;;;21.10;96.60;;;;;;5069492;27;20054;-70
2023/06/19 02:47:31;;;;;;;8.75;6.85;;;21.10;96.60;;;;;;5091544;27;20052;-70
2023/06/19 02:50:01;;;;;;;9.30;7.20;;;21.10;96.50;;;;;;5093853;27;20059;-73
2023/06/19 02:52:27;;;;;;;7.97;6.68;;;21.10;96.30;;;;;;5087012;27;20646;-72
2023/06/19 02:54:54;;;;;;;8.40;7.35;;;21.10;96.20;;;;;;5108689;27;20174;-71
2023/06/19 02:57:20;;;;;;;10.45;6.80;;;21.10;96.10;;;;;;5072778;27;20670;-74
2023/06/19 02:59:47;;;;;;;9.50;6.82;;;21.10;96.10;;;;;;5090576;27;20095;-74
2023/06/19 03:02:12;;;;;;;7.85;7.05;;;21.10;96.10;;;;;;5089135;27;20711;-72
2023/06/19 03:04:40;;;;;;;7.90;6.60;;;21.10;96.20;;;;;;5072561;27;20051;-73
2023/06/19 03:07:06;;;;;;;8.77;6.75;;;21.10;96.40;;;;;;5090130;27;20046;-71
2023/06/19 03:09:31;;;;;;;7.45;5.85;;;21.20;96.80;;;;;;5092972;27;20050;-71
2023/06/19 03:11:57;;;;;;;7.45;4.72;;;21.20;97.20;;;;;;5069176;27;20506;-74
2023/06/19 03:14:23;;;;;;;6.28;4.00;;;21.10;97.60;;;;;;5071172;27;20052;-70
2023/06/19 03:16:49;;;;;;;5.35;3.15;;;21.20;98.30;;;;;;5072220;27;20058;-73
2023/06/19 03:19:14;;;;;;;5.60;2.80;;;21.10;98.90;;;;;;5088203;27;20058;-71
2023/06/19 03:21:40;;;;;;;6.15;2.97;;;21.20;99.30;;;;;;5089682;27;20051;-71
2023/06/19 03:24:06;;;;;;;4.68;2.97;;;21.10;99.70;;;;;;5086648;27;20065;-73
2023/06/19 03:26:32;;;;;;;5.88;2.70;;;21.10;99.90;;;;;;5070540;27;20054;-72
2023/06/19 03:28:58;;;;;;;5.88;2.80;;;21.10;99.90;;;;;;5087998;27;20047;-74
2023/06/19 03:31:24;;;;;;;3.00;1.98;;;21.10;99.90;;;;;;5089639;27;20054;-72
2023/06/19 03:33:49;;;;;;;4.70;1.77;;;21.00;99.90;;;;;;5068402;27;20042;-72
2023/06/19 03:36:15;;;;;;;6.80;1.67;;;21.00;99.90;;;;;;5086501;27;20217;-72
2023/06/19 03:38:41;;;;;;;3.60;2.00;;;21.00;99.90;;;;;;5088982;27;20054;-74
2023/06/19 03:41:07;;;;;;;4.03;1.73;;;21.00;99.90;;;;;;5070599;27;20050;-70
2023/06/19 03:43:33;;;;;;;4.55;1.92;;;21.00;99.90;;;;;;5080148;27;20084;-71
2023/06/19 03:45:58;;;;;;;3.85;1.77;;;20.90;99.90;;;;;;5089447;27;20047;-70
2023/06/19 03:48:24;;;;;;;3.35;1.98;;;20.90;99.90;;;;;;5087178;27;20096;-72
2023/06/19 03:50:50;;;;;;;4.53;1.60;;;20.90;99.90;;;;;;5089153;27;21457;-72
2023/06/19 03:53:16;;;;;;;3.60;1.85;;;20.90;99.90;;;;;;5071022;27;20521;-73
2023/06/19 03:55:42;;;;;;;3.22;2.00;;;20.90;99.90;;;;;;5088680;27;20062;-71
2023/06/19 03:58:09;;;;;;;3.35;2.22;;;21.00;99.90;;;;;;5088862;27;20142;-73
2023/06/19 04:00:35;;;;;;;3.72;2.50;;;21.00;99.90;;;;;;5071894;27;20589;-71
2023/06/19 04:03:01;;;;;;;4.50;2.80;;;21.00;99.90;;;;;;5056079;27;20506;-72
2023/06/19 04:05:26;;;;;;;4.25;2.70;;;21.00;99.90;;;;;;5071040;27;20058;-71
2023/06/19 04:07:52;;;;;;;3.75;2.70;;;21.00;99.90;;;;;;5087901;27;20039;-70
2023/06/19 04:10:18;;;;;;;4.60;2.42;;;21.00;99.90;;;;;;5059476;27;20047;-70
2023/06/19 04:12:45;;;;;;;4.40;2.30;;;21.00;99.90;;;;;;5107637;27;20797;-71
2023/06/19 04:15:11;;;;;;;5.88;2.40;;;21.00;99.90;;;;;;5059152;27;20039;-70
2023/06/19 04:17:37;;;;;;;5.30;2.85;;;21.00;99.90;;;;;;5069733;27;20085;-74
2023/06/19 04:20:10;;;;;;;6.47;3.67;;;21.00;99.90;;;;;;5076334;27;20137;-71
2023/06/19 04:22:40;;;;;;;12.80;7.57;;;21.00;99.90;;;;;;5090293;27;20470;-74
2023/06/19 04:25:12;;;;;;;12.05;9.65;;;21.10;99.90;;;;;;5090263;27;20054;-71
2023/06/19 04:27:39;;;;;;;14.70;11.10;;;21.10;99.90;;;;;;5068071;27;20131;-72
2023/06/19 04:30:06;;;;;;;15.20;12.07;;;21.00;99.90;;;;;;5088972;27;20047;-71
2023/06/19 04:32:32;;;;;;;14.38;11.25;;;21.10;99.90;;;;;;5087690;27;20050;-72
2023/06/19 04:34:58;;;;;;;13.02;10.77;;;21.10;99.90;;;;;;5088140;27;20100;-70
2023/06/19 04:37:24;;;;;;;17.88;11.60;;;21.30;99.90;;;;;;5103262;27;20042;-71
2023/06/19 04:39:50;;;;;;;13.02;10.98;;;21.00;99.90;;;;;;5070382;27;20051;-74
2023/06/19 04:42:19;;;;;;;15.27;11.38;;;21.00;99.90;;;;;;5053101;27;20154;-72
2023/06/19 04:44:45;;;;;;;12.98;11.57;;;21.00;99.90;;;;;;5086025;27;20087;-72
2023/06/19 04:47:11;;;;;;;15.55;12.00;;;21.00;99.90;;;;;;5103602;27;20043;-72
2023/06/19 04:49:37;;;;;;;13.60;11.55;;;21.00;99.90;;;;;;5088413;27;20047;-73
2023/06/19 04:52:03;;;;;;;12.55;10.80;;;21.00;99.90;;;;;;5074588;27;20047;-74
2023/06/19 04:54:32;;;;;;;12.15;10.43;;;21.00;99.90;;;;;;5083979;27;20557;-71
2023/06/19 04:56:58;;;;;;;13.35;10.50;;;21.00;99.90;;;;;;5069674;27;20047;-71
2023/06/19 04:59:24;;;;;;;15.07;11.07;;;21.00;99.90;;;;;;5090633;27;20055;-71
2023/06/19 05:01:53;;;;;;;14.45;11.20;;;21.00;99.90;;;;;;5086676;27;20062;-71
2023/06/19 05:04:20;;;;;;;13.95;11.55;;;21.00;99.90;;;;;;5087213;27;20074;-71
2023/06/19 05:06:45;;;;;;;13.98;12.48;;;21.10;99.90;;;;;;5070824;27;20050;-71
2023/06/19 05:09:11;;;;;;;15.65;13.38;;;21.10;99.90;;;;;;5088556;27;20608;-72
2023/06/19 05:11:37;;;;;;;16.83;15.02;;;21.10;99.90;;;;;;5083662;27;20079;-73
2023/06/19 05:14:03;;;;;;;18.20;15.43;;;21.10;99.90;;;;;;5102245;27;20170;-75
2023/06/19 05:16:29;;;;;;;18.20;16.17;;;21.10;99.90;;;;;;5087371;27;20641;-73
2023/06/19 05:18:55;;;;;;;19.00;16.30;;;21.20;99.90;;;;;;5080736;27;20043;-72
2023/06/19 05:21:20;;;;;;;21.27;17.15;;;21.20;99.90;;;;;;5108976;27;20035;-73
2023/06/19 05:23:50;;;;;;;21.08;18.80;;;21.20;99.90;;;;;;5089570;27;20055;-76
2023/06/19 05:26:17;;;;;;;22.30;19.35;;;21.70;99.90;;;;;;5088858;27;20172;-73
2023/06/19 05:28:42;;;;;;;25.17;19.88;;;21.20;99.90;;;;;;5088697;27;20046;-72
2023/06/19 05:31:08;;;;;;;22.05;19.65;;;21.20;99.90;;;;;;5091269;27;20668;-73
2023/06/19 05:33:34;;;;;;;22.92;18.77;;;21.20;99.90;;;;;;5076221;27;20458;-72
2023/06/19 05:36:01;;;;;;;21.63;17.42;;;21.20;99.90;;;;;;5070482;27;20053;-73
2023/06/19 05:38:28;;;;;;;21.48;16.90;;;21.20;99.90;;;;;;5086486;27;20078;-74
2023/06/19 05:40:53;;;;;;;19.45;16.50;;;21.20;99.90;;;;;;5070527;27;20046;-72
2023/06/19 05:43:19;;;;;;;20.02;14.85;;;21.20;99.90;;;;;;5072395;27;20412;-73
2023/06/19 05:45:45;;;;;;;19.25;13.82;;;21.10;99.90;;;;;;5087562;27;20365;-72
2023/06/19 05:48:11;;;;;;;18.45;13.93;;;21.10;99.90;;;;;;5106067;27;20096;-73
2023/06/19 05:50:36;;;;;;;22.80;15.00;;;21.10;99.90;;;;;;5088803;27;20850;-71
2023/06/19 05:53:02;;;;;;;23.92;15.27;;;21.10;99.90;;;;;;5107569;27;20070;-71
2023/06/19 05:55:28;;;;;;;19.42;14.15;;;21.00;99.90;;;;;;5072182;27;20047;-71
2023/06/19 05:57:55;;;;;;;20.55;15.02;;;21.00;99.90;;;;;;5085718;27;20062;-73
2023/06/19 06:00:22;;;;;;;21.27;15.25;;;21.00;99.90;;;;;;5104205;27;20047;-72
2023/06/19 06:02:48;;;;;;;19.70;14.43;;;21.00;99.90;;;;;;5073499;27;20058;-71
2023/06/19 06:05:14;;;;;;;16.67;14.13;;;20.90;99.90;;;;;;5069869;27;20039;-73
2023/06/19 06:07:40;;;;;;;20.30;14.95;;;20.80;99.90;;;;;;5087755;27;20066;-72
2023/06/19 06:10:06;;;;;;;16.13;13.52;;;20.80;99.90;;;;;;5084487;27;20039;-73
2023/06/19 06:12:35;;;;;;;17.98;13.48;;;20.80;99.90;;;;;;5105343;27;20043;-72
2023/06/19 06:15:02;;;;;;;19.65;14.75;;;20.80;99.90;;;;;;5073368;27;20043;-71
2023/06/19 06:17:28;;;;;;;18.63;14.52;;;20.60;99.90;;;;;;5081953;27;20176;-73
2023/06/19 06:19:54;;;;;;;19.15;15.40;;;20.60;99.90;;;;;;5051222;27;20043;-71
2023/06/19 06:22:19;;;;;;;22.90;15.80;;;20.50;99.90;;;;;;5089193;27;20099;-72
2023/06/19 06:24:46;;;;;;;23.98;17.85;;;20.40;99.90;;;;;;5090180;27;20039;-71
2023/06/19 06:27:13;;;;;;;25.85;20.42;;;20.30;99.90;;;;;;5108297;27;20132;-72
2023/06/19 06:29:39;;;;;;;27.33;21.10;;;20.20;99.90;;;;;;5087219;27;20514;-75
2023/06/19 06:32:09;;;;;;;33.00;24.35;;;20.10;99.90;;;;;;5106384;27;20409;-74
2023/06/19 06:34:34;;;;;;;35.45;25.08;;;20.00;99.90;;;;;;5090704;27;20590;-71
2023/06/19 06:37:01;;;;;;;31.33;24.88;;;19.90;99.90;;;;;;5086198;27;20081;-74
2023/06/19 06:39:27;;;;;;;33.50;24.23;;;19.90;99.90;;;;;;5102538;27;20042;-73
2023/06/19 06:41:52;;;;;;;34.20;24.55;;;19.80;99.90;;;;;;5088491;27;20797;-74
2023/06/19 06:44:18;;;;;;;33.80;23.33;;;19.80;99.90;;;;;;5072444;27;20489;-72
2023/06/19 06:46:44;;;;;;;33.22;23.88;;;19.70;99.90;;;;;;5107821;27;20046;-72
2023/06/19 06:49:11;;;;;;;36.63;25.10;;;19.70;99.90;;;;;;5070437;27;20886;-74
2023/06/19 06:51:37;;;;;;;39.13;24.52;;;19.60;99.90;;;;;;5071271;27;20046;-73
2023/06/19 06:54:03;;;;;;;34.22;24.77;;;19.50;99.90;;;;;;5086964;27;20085;-74
2023/06/19 06:56:29;;;;;;;33.45;22.98;;;19.40;99.90;;;;;;5088712;27;20046;-74
2023/06/19 06:58:55;;;;;;;32.15;21.67;;;19.40;99.90;;;;;;5086946;27;20457;-74
2023/06/19 07:01:20;;;;;;;33.47;23.67;;;19.30;99.90;;;;;;5087865;27;20057;-74
2023/06/19 07:03:46;;;;;;;32.25;23.08;;;19.30;99.90;;;;;;5107897;27;20088;-74
2023/06/19 07:06:12;;;;;;;33.05;23.15;;;19.20;99.90;;;;;;5072991;27;20587;-72
2023/06/19 07:08:40;;;;;;;26.98;19.75;;;19.20;99.90;;;;;;5086800;27;20051;-74
2023/06/19 07:11:09;;;;;;;28.58;18.65;;;19.20;99.90;;;;;;5084416;27;20143;-74
2023/06/19 07:13:35;;;;;;;28.20;20.27;;;19.20;99.90;;;;;;5087716;27;20114;-72
2023/06/19 07:16:01;;;;;;;32.33;19.98;;;18.50;99.90;;;;;;5091409;27;20084;-72
2023/06/19 07:18:28;;;;;;;30.48;20.65;;;19.20;99.90;;;;;;5070483;27;20047;-72
2023/06/19 07:20:53;;;;;;;29.33;18.70;;;19.20;99.90;;;;;;5090427;27;20280;-75
2023/06/19 07:23:19;;;;;;;27.65;19.05;;;19.20;99.90;;;;;;5106919;27;20572;-74
2023/06/19 07:25:48;;;;;;;27.80;18.25;;;19.20;99.90;;;;;;5057899;27;20146;-73
2023/06/19 07:28:15;;;;;;;32.17;18.65;;;19.20;99.90;;;;;;5087312;27;20038;-73
2023/06/19 07:30:40;;;;;;;25.50;16.33;;;19.30;99.90;;;;;;5103903;27;20769;-73
2023/06/19 07:33:06;;;;;;;29.08;16.35;;;19.30;99.90;;;;;;5087463;27;20051;-72
2023/06/19 07:35:32;;;;;;;20.98;14.73;;;19.20;99.90;;;;;;5071495;27;20142;-72
2023/06/19 07:37:58;;;;;;;18.13;13.38;;;19.20;99.90;;;;;;5098924;27;20125;-72
2023/06/19 07:40:30;;;;;;;18.55;13.02;;;19.20;99.90;;;;;;5097380;27;20785;-76
2023/06/19 07:43:36;;;;;;;20.35;12.88;;;19.50;99.90;;;;;;5107199;27;20047;-77
2023/06/19 07:46:17;;;;;;;21.05;12.43;;;19.10;99.90;;;;;;5114127;27;20134;-75
2023/06/19 07:49:10;;;;;;;19.40;13.63;;;18.40;99.90;;;;;;5072465;27;20116;-80
2023/06/19 07:51:40;;;;;;;24.00;14.52;;;19.00;99.90;;;;;;5099866;27;20063;-76
2023/06/19 07:54:24;;;;;;;21.25;14.20;;;18.40;99.90;;;;;;5098582;27;20044;-75
2023/06/19 07:56:57;;;;;;;20.88;13.48;;;19.00;99.90;;;;;;5107420;27;20076;-76
2023/06/19 07:59:51;;;;;;;17.33;13.35;;;19.00;99.90;;;;;;5076278;27;20397;-76
2023/06/19 08:02:46;;;;;;;21.23;12.77;;;18.90;99.90;;;;;;5122213;27;20058;-78
2023/06/19 08:05:40;;;;;;;18.45;12.40;;;18.60;99.90;;;;;;5091383;27;20039;-77
2023/06/19 08:08:13;;;;;;;16.65;11.60;;;18.90;99.90;;;;;;5109923;27;20103;-77
2023/06/19 08:11:00;;;;;;;17.90;11.13;;;18.90;99.90;;;;;;5107174;27;20039;-78
2023/06/19 08:13:30;;;;;;;16.20;11.20;;;18.90;99.90;;;;;;5079702;27;20074;-77
2023/06/19 08:16:51;;;;;;;17.20;11.73;;;18.90;99.90;;;;;;5111629;27;20034;-76
2023/06/19 08:19:24;;;;;;;18.90;11.52;;;19.00;99.90;;;;;;5108850;27;20398;-77
2023/06/19 08:22:05;;;;;;;17.05;11.32;;;19.00;99.90;;;;;;5061254;27;20466;-77
2023/06/19 08:25:14;;;;;;;15.23;11.13;;;19.00;99.90;;;;;;5080631;28;20043;-76
2023/06/19 08:28:06;;;;;;;14.90;11.10;;;19.10;99.90;;;;;;5121076;27;20047;-77
2023/06/19 08:30:51;;;;;;;19.63;11.93;;;19.10;99.90;;;;;;5089123;27;20050;-77
2023/06/19 08:34:11;;;;;;;16.92;11.95;;;19.10;99.90;;;;;;5062439;27;20062;-76
2023/06/19 08:36:59;;;;;;;18.60;11.70;;;19.10;99.90;;;;;;5104704;27;20061;-76
2023/06/19 08:39:32;;;;;;;17.50;11.00;;;19.10;99.90;;;;;;5125110;27;20043;-77
2023/06/19 08:42:14;;;;;;;17.83;11.15;;;19.10;99.90;;;;;;5076665;27;20424;-75
2023/06/19 08:45:18;;;;;;;18.95;11.77;;;19.10;99.90;;;;;;5088888;27;20111;-76
2023/06/19 08:48:25;;;;;;;18.80;12.10;;;19.00;99.90;;;;;;5122032;27;20107;-77
2023/06/19 08:51:14;;;;;;;16.42;10.55;;;19.00;99.90;;;;;;5109142;27;20262;-76
2023/06/19 08:54:05;;;;;;;21.85;12.02;;;19.00;99.90;;;;;;5082675;27;20134;-78
2023/06/19 08:59:51;;;;;;;16.33;12.00;;;18.90;99.90;;;;;;5112471;27;20054;-72
2023/06/19 09:02:17;;;;;;;17.63;12.52;;;19.00;99.90;;;;;;5103160;27;20047;-73
2023/06/19 09:04:43;;;;;;;17.42;13.23;;;18.90;99.90;;;;;;5111920;27;20047;-72
2023/06/19 09:07:08;;;;;;;19.60;12.88;;;18.90;99.90;;;;;;5109476;27;20051;-71
2023/06/19 09:09:34;;;;;;;17.17;12.15;;;18.80;99.90;;;;;;5112785;27;20047;-71
2023/06/19 09:12:06;;;;;;;20.85;13.32;;;18.80;99.90;;;;;;5133471;27;20070;-73
2023/06/19 09:14:39;;;;;;;22.13;13.77;;;18.80;99.90;;;;;;5115892;27;20039;-72
2023/06/19 09:17:11;;;;;;;21.13;12.65;;;18.80;99.90;;;;;;5115468;27;20046;-70
2023/06/19 09:19:37;;;;;;;17.77;11.93;;;18.80;99.90;;;;;;5135283;27;20099;-71
2023/06/19 09:22:07;;;;;;;17.23;12.85;;;18.70;99.90;;;;;;5114150;27;20434;-70
2023/06/19 09:24:40;;;;;;;19.95;12.70;;;18.80;99.90;;;;;;5092174;27;20103;-70
2023/06/19 09:27:17;;;;;;;16.60;11.38;;;18.80;99.90;;;;;;5111040;27;20070;-71
2023/06/19 09:29:45;;;;;;;16.70;12.38;;;18.80;99.90;;;;;;5118632;27;20054;-71
2023/06/19 09:32:28;;;;;;;15.95;11.13;;;18.90;99.90;;;;;;5076101;27;20051;-72
2023/06/19 09:35:00;;;;;;;20.88;11.65;;;18.90;99.90;;;;;;5108700;27;20536;-72
2023/06/19 09:37:28;;;;;;;17.95;12.10;;;18.90;99.90;;;;;;5109392;27;20050;-72
2023/06/19 09:39:54;;;;;;;16.25;11.27;;;18.90;99.90;;;;;;5111204;27;20116;-72
2023/06/19 09:42:34;;;;;;;15.27;11.30;;;19.00;99.90;;;;;;5110044;27;20043;-71
2023/06/19 09:45:04;;;;;;;17.67;11.35;;;19.00;99.90;;;;;;5093547;27;20047;-74
2023/06/19 09:47:43;;;;;;;15.95;10.82;;;19.10;99.90;;;;;;5107340;27;20510;-75
2023/06/19 09:50:15;;;;;;;15.85;11.43;;;19.00;99.90;;;;;;5105799;27;20039;-71
2023/06/19 09:52:43;;;;;;;18.25;11.48;;;19.00;99.90;;;;;;5092415;27;20055;-72
2023/06/19 09:55:12;;;;;;;17.63;12.00;;;19.10;99.90;;;;;;5109861;27;20045;-72
2023/06/19 09:57:40;;;;;;;17.45;12.27;;;19.10;99.90;;;;;;5110441;27;20041;-72
2023/06/19 10:00:12;;;;;;;16.05;11.85;;;19.10;99.90;;;;;;5099483;27;20046;-74
2023/06/19 10:02:40;;;;;;;17.45;12.75;;;19.10;99.90;;;;;;5106424;27;21605;-72
2023/06/19 10:05:12;;;;;;;18.33;14.00;;;19.10;99.90;;;;;;5089508;27;20569;-74
2023/06/19 10:07:41;;;;;;;21.45;14.82;;;19.00;99.90;;;;;;5089357;27;20117;-72
2023/06/19 10:10:08;;;;;;;17.45;13.13;;;18.60;99.90;;;;;;5108457;27;20180;-74
2023/06/19 10:12:38;;;;;;;20.05;14.43;;;18.90;99.90;;;;;;5085424;27;20055;-71
2023/06/19 10:15:24;;;;;;;22.45;14.93;;;18.50;99.90;;;;;;5106320;27;20481;-72
2023/06/19 10:18:00;;;;;;;23.45;15.90;;;18.90;99.90;;;;;;5094144;27;20143;-73
2023/06/19 10:20:35;;;;;;;21.27;14.75;;;18.90;99.90;;;;;;5109067;27;20054;-74
2023/06/19 10:23:10;;;;;;;24.20;15.45;;;18.90;99.90;;;;;;5107862;27;20043;-72
2023/06/19 10:25:38;;;;;;;23.02;14.93;;;18.90;99.90;;;;;;5093619;27;20159;-73
2023/06/19 10:28:16;;;;;;;20.10;13.90;;;18.90;99.90;;;;;;5098987;27;20233;-71
2023/06/19 10:30:42;;;;;;;19.45;13.40;;;18.90;99.90;;;;;;5098073;27;20043;-69
2023/06/19 10:33:08;;;;;;;17.25;12.20;;;19.00;99.90;;;;;;5089950;27;20043;-72
2023/06/19 10:35:41;;;;;;;16.20;11.77;;;19.00;99.90;;;;;;5102260;27;21738;-71
2023/06/19 10:38:08;;;;;;;14.63;11.68;;;19.20;99.90;;;;;;5110020;27;20137;-70
2023/06/19 10:40:36;;;;;;;15.23;10.70;;;19.50;99.90;;;;;;5106082;27;20055;-73
2023/06/19 10:43:03;;;;;;;16.17;11.10;;;19.70;99.90;;;;;;5110371;27;20051;-72
2023/06/19 10:45:29;;;;;;;12.57;9.70;;;19.90;99.90;;;;;;5092172;27;20043;-71
2023/06/19 10:47:56;;;;;;;11.88;9.43;;;20.10;99.90;;;;;;5112678;27;20697;-72
2023/06/19 10:50:22;;;;;;;11.80;8.40;;;20.30;99.90;;;;;;5114784;27;20051;-71
2023/06/19 10:52:52;;;;;;;9.93;8.05;;;20.40;99.90;;;;;;5114825;27;20047;-70
2023/06/19 10:55:18;;;;;;;10.27;8.50;;;20.50;99.90;;;;;;5101869;27;20471;-70
2023/06/19 10:57:48;;;;;;;11.05;8.50;;;20.60;99.90;;;;;;5114711;27;20054;-70
2023/06/19 11:00:31;;;;;;;13.27;9.20;;;20.60;99.90;;;;;;5113189;27;20038;-71
2023/06/19 11:02:57;;;;;;;11.07;9.02;;;20.70;99.90;;;;;;5098219;27;20043;-70
2023/06/19 11:05:26;;;;;;;12.25;9.05;;;20.80;99.90;;;;;;5113655;27;20077;-70
2023/06/19 11:07:59;;;;;;;11.30;8.45;;;21.00;99.90;;;;;;5090872;27;20096;-70
2023/06/19 11:10:27;;;;;;;10.50;8.73;;;21.30;99.90;;;;;;5103355;27;20128;-70
2023/06/19 11:12:57;;;;;;;10.45;8.95;;;21.40;99.90;;;;;;5096308;27;20815;-70
2023/06/19 11:15:33;;;;;;;9.98;8.02;;;21.50;99.90;;;;;;5132743;27;20731;-71
2023/06/19 11:18:00;;;;;;;9.82;7.70;;;21.70;99.90;;;;;;5086771;27;20050;-71
2023/06/19 11:20:26;;;;;;;8.85;7.40;;;21.90;99.90;;;;;;5112648;27;20126;-70
2023/06/19 11:23:00;;;;;;;10.70;7.18;;;22.10;99.90;;;;;;5097614;27;20408;-70
2023/06/19 11:25:37;;;;;;;11.70;7.72;;;22.20;99.90;;;;;;5113801;27;20183;-69
2023/06/19 11:28:04;;;;;;;10.63;7.32;;;22.30;99.90;;;;;;5112843;27;20512;-71
2023/06/19 11:30:32;;;;;;;9.65;7.13;;;22.40;99.90;;;;;;5099252;27;20099;-72
2023/06/19 11:32:58;;;;;;;9.07;7.70;;;22.50;99.90;;;;;;5114791;27;20129;-70
2023/06/19 11:35:24;;;;;;;9.73;7.18;;;22.60;99.90;;;;;;5116401;27;20058;-70
2023/06/19 11:37:51;;;;;;;9.77;6.78;;;22.60;99.90;;;;;;5111305;27;20042;-70
2023/06/19 11:40:19;;;;;;;10.35;8.07;;;22.70;99.90;;;;;;5115964;27;20047;-70
2023/06/19 11:42:51;;;;;;;11.68;8.02;;;22.80;99.90;;;;;;5135372;27;20114;-71
2023/06/19 11:45:17;;;;;;;10.10;7.35;;;22.90;99.90;;;;;;5114796;27;20043;-71
2023/06/19 11:47:46;;;;;;;8.23;7.00;;;23.00;99.90;;;;;;5114279;27;20042;-70
2023/06/19 11:50:13;;;;;;;9.68;7.38;;;23.20;99.90;;;;;;5085550;27;20425;-71
2023/06/19 11:52:39;;;;;;;11.40;7.65;;;23.30;99.90;;;;;;5117286;27;20043;-71
2023/06/19 11:55:06;;;;;;;9.02;6.30;;;23.40;99.90;;;;;;5113446;27;20050;-71
2023/06/19 11:57:33;;;;;;;9.27;6.38;;;23.50;99.90;;;;;;5087924;27;20576;-71
2023/06/19 11:59:58;;;;;;;10.45;7.70;;;23.90;99.90;;;;;;5109402;27;20053;-71
2023/06/19 12:02:24;;;;;;;8.63;7.65;;;24.00;99.90;;;;;;5113997;27;20043;-71
2023/06/19 12:04:50;;;;;;;9.18;6.57;;;24.20;99.90;;;;;;5112096;27;20039;-72
2023/06/19 12:07:16;;;;;;;12.98;7.70;;;24.40;99.90;;;;;;5096041;27;20051;-70
2023/06/19 12:09:43;;;;;;;11.32;8.18;;;24.50;99.90;;;;;;5094703;27;20057;-69
2023/06/19 12:12:09;;;;;;;9.00;7.53;;;24.80;99.90;;;;;;5098949;27;20118;-70
2023/06/19 12:14:35;;;;;;;11.07;8.27;;;24.90;99.90;;;;;;5095726;27;20081;-70
2023/06/19 12:17:00;;;;;;;10.23;8.07;;;24.90;99.90;;;;;;5113336;27;20103;-69
2023/06/19 12:19:29;;;;;;;10.32;8.50;;;25.00;99.90;;;;;;5112790;27;20051;-71
2023/06/19 12:21:55;;;;;;;10.93;7.80;;;25.10;99.90;;;;;;5096741;27;20092;-70
2023/06/19 12:24:21;;;;;;;10.80;7.20;;;25.10;99.90;;;;;;5116591;27;20043;-70
2023/06/19 12:26:46;;;;;;;10.82;7.85;;;25.10;99.90;;;;;;5098231;27;20058;-70
2023/06/19 12:29:12;;;;;;;10.77;7.68;;;25.10;99.90;;;;;;5074991;27;20047;-69
2023/06/19 12:31:38;;;;;;;9.88;7.60;;;24.90;99.90;;;;;;5119439;27;20050;-70
2023/06/19 12:34:06;;;;;;;13.73;7.25;;;24.90;99.90;;;;;;5117073;27;20047;-69
2023/06/19 12:36:31;;;;;;;11.20;7.05;;;24.90;99.90;;;;;;5119404;27;20052;-70
2023/06/19 12:39:06;;;;;;;11.43;7.47;;;25.00;99.90;;;;;;5103765;27;20054;-70
2023/06/19 12:41:31;;;;;;;11.35;7.15;;;25.10;99.90;;;;;;5118971;27;20123;-71
2023/06/19 12:43:57;;;;;;;11.05;6.70;;;25.10;99.90;;;;;;5117734;27;20120;-70
2023/06/19 12:46:23;;;;;;;9.45;6.95;;;25.20;99.90;;;;;;5119861;27;20051;-71
2023/06/19 12:48:50;;;;;;;9.60;6.55;;;25.10;99.90;;;;;;5116501;27;20809;-71